Terminal Aerodrome Forecast
Issued by NWS

Home | Current Version | Previous Version | Text Only | Print | Product List | Glossary On
Versions: 1 2 3 4 5 6 7 8 9 10 11 12 13 14 15 16 17 18 19 20 21 22 23
831
FTUS42 KTAE 290520
TAFABY
TAF
KABY 290520Z 2906/3006 20003KT P6SM SCT005
     FM290800 00000KT 2SM BR BKN005
     FM291400 21005KT P6SM SCT025
     FM291900 22007KT P6SM SCT050
     FM300000 20003KT P6SM SCT250=

USA.gov is the U.S. government's official web portal to all federal, state and local government web resources and services.